Estherwood, LA

4:13 PM CDT on August 24, 2019 (GMT -0500)
Morse | | Change Station

Elev 10 ft 30.13 °N, 92.50 °W | Updated 2 seconds ago

Overcast
Overcast
84 °F
Feels Like 91 °F
N
6
Wind Variable Wind from SSW
Gusts 8.0 mph

Today
High -- | Low -- °F
--% Chance of Precip.
Yesterday
High -- | Low -- °F
Precip. -- in
Pressure 29.92 in
Visibility 10.0 miles
Clouds Scattered Clouds 2100 ft
Mostly Cloudy 3000 ft
Overcast 3700 ft
Heat Index 91 °F
Dew Point 75 °F
Humidity 73%
Rainfall 0.14 in
Snow Depth Not available.
6:42 AM 7:41 PM
Last Quarter, 37% visible
METAR K3R7 242035Z AUTO 15006KT 10SM SCT021 BKN030 OVC037 27/24 A2992 RMK AO2 T02720236
Pressure 29.92 in
Visibility 10.0 miles
Clouds Scattered Clouds 2100 ft
Mostly Cloudy 3000 ft
Overcast 3700 ft
Heat Index 91 °F
Dew Point 75 °F
Humidity 73%
Rainfall 0.14 in
Snow Depth Not available.
6:42 AM 7:41 PM
Last Quarter, 37% visible
METAR K3R7 242035Z AUTO 15006KT 10SM SCT021 BKN030 OVC037 27/24 A2992 RMK AO2 T02720236

Get Severe Weather Alerts

Thanks for signing up!

Be on the lookout for a verification email in your inbox.

You'll start receiving the daily forecast at 6 AM.

×

10-Day Weather Forecast

Almanac

Astronomy

Aug. 24, 2019 Rise Set
Actual Time
Civil Twilight
Nautical Twilight
Astronomical Twilight
Moon
Length of Visible Light
Length of Day
Tomorrow will be .
, % of the Moon is Illuminated

Today's Extremes

State Highs State Lows

Community

WunderPhotos

Category 6

Welcome to Category 6. This is the collective home for Weather Underground's featured writeups by Dr. Jeff Masters (right), Bob Henson (left), Chris Burt, and other regular contributors.

Nearby

Air Quality

  Air Quality AQ Index Pollutant
Not available.

Snow Depth

Station Depth Elevation

Earthquake Activity

City Distance Mag. Time & Date
Minimum magnitude displayed is 2.5.

Coastal Water Temperatures

Place Temperature

Stations

Nearby Weather Stations

Station Location Temp. Windchill Dew Point Humidity Wind Precip. Elev Updated Type
                   

Watches & Warnings

There are currently no watches in effect.